Página principal
METAR-TAF:

METAR-TAF

Aeroportos :

Vieux-Fort, Santa Lúcia

latitude: 13-45N, longitude: 060-57W, altura: 3 m

Observação actual do tempo

O boletim foi feito há 1 hora e 13 minutos, às 01:00 UTC
Vento 24 kt de este
Temperatura 28°C
Humidade 74%
Pressão 1013 hPa
Visibilidade 10 km ou mais
Nuvens dispersasa uma altura de 2500 ft

METAR: TLPL 150100Z 08024KT 9999 SCT025 28/23 Q1013 NOSIG

Hora: 22:13 (02:13 UTC)

Previsão

O boletim foi feito há 3 horas e 13 minutos, às 23:00 UTC
Previsão válida de 15 às 00 UTC a 15 às 24 UTC
Vento 20 kt de este com rajadas de 30 kt
Visibilidade 10 km ou mais
Nuvens dispersasa uma altura de 2500 ft
Probabilidade 30% :
Temporariamente
de 15 às 06 UTC a 15 às 14 UTC
aguaceiros de chuva

TAF: TLPL 142300Z 1500/1524 09020G30KT 9999 SCT025 PROB30 TEMPO 1506/1514 SHRA

Observações e previsões do tempo de mais de 4000 aeroportos (mensagens METAR e TAF).

As estações disponíveis são os pontos amarelos e vermelhos sobre o mapa.

Mova o rato sobre o mapa para ver o nome da estação.

Depois clique no ponto para visualizar as observações e previsões meteorológicas.

Para alterar o mapa : clique nos botões verdes com uma cruz preta para aumentar o zoom; no botão verde com uma pitada de zoom; ou nas setas verdes para mapas adjacentes.


METAR-TAF: